createdAt,value
2023-01-01T00:00:18.901Z,3.95
2023-01-01T00:03:06.238Z,3.40
2023-01-01T00:05:33.457Z,3.35
2023-01-01T00:08:04.526Z,3.80
2023-01-01T00:10:32.089Z,3.38
2023-01-01T00:13:00.037Z,3.70
2023-01-01T00:15:28.399Z,3.28
2023-01-01T00:17:56.073Z,3.58
2023-01-01T00:20:23.116Z,3.78
2023-01-01T00:22:55.014Z,3.30
2023-01-01T00:25:23.891Z,3.70
2023-01-01T00:27:51.677Z,3.55
2023-01-01T00:30:19.193Z,3.95
2023-01-01T00:32:55.506Z,3.78
2023-01-01T00:35:25.668Z,3.50
2023-01-01T00:37:54.328Z,3.60
2023-01-01T00:40:21.583Z,3.58
2023-01-01T00:42:48.617Z,4.15
2023-01-01T00:45:20.885Z,3.75
2023-01-01T00:47:53.381Z,3.28
2023-01-01T00:50:23.562Z,3.88
2023-01-01T00:52:50.754Z,4.30
2023-01-01T00:55:17.918Z,3.88
2023-01-01T00:57:45.040Z,4.30
2023-01-01T01:00:12.460Z,4.35
2023-01-01T01:02:39.629Z,4.47
2023-01-01T01:05:07.523Z,4.75
2023-01-01T01:07:39.286Z,4.93
2023-01-01T01:10:07.938Z,4.93
2023-01-01T01:12:35.462Z,5.40
2023-01-01T01:15:03.253Z,5.60
2023-01-01T01:17:30.422Z,5.90
2023-01-01T01:19:57.336Z,5.70
2023-01-01T01:22:28.598Z,5.95
2023-01-01T01:24:57.015Z,5.50
2023-01-01T01:27:24.996Z,5.33
2023-01-01T01:29:52.347Z,5.20
2023-01-01T01:32:19.816Z,5.17
2023-01-01T01:34:47.073Z,5.40
2023-01-01T01:37:14.496Z,5.28
2023-01-01T01:39:41.341Z,5.35
2023-01-01T01:42:12.577Z,5.18
2023-01-01T01:44:45.656Z,4.87
2023-01-01T01:47:22.678Z,5.10
2023-01-01T01:49:55.869Z,4.87
2023-01-01T01:52:23.169Z,4.57
2023-01-01T01:54:50.109Z,5.15
2023-01-01T01:57:18.245Z,4.70
2023-01-01T01:59:50.838Z,4.38
2023-01-01T02:02:34.422Z,5.53
2023-01-01T02:05:02.170Z,4.57
2023-01-01T02:07:31.733Z,4.40
2023-01-01T02:09:59.013Z,4.33
2023-01-01T02:12:27.355Z,4.40
2023-01-01T02:14:54.780Z,4.60
2023-01-01T02:17:39.025Z,4.35
2023-01-01T02:20:19.359Z,4.93
2023-01-01T02:23:05.034Z,4.70
2023-01-01T02:25:49.529Z,5.13
2023-01-01T02:29:07.922Z,4.63
2023-01-01T02:31:42.259Z,4.40
2023-01-01T02:34:14.268Z,4.77
2023-01-01T02:36:48.640Z,4.90
2023-01-01T02:39:17.908Z,4.55
2023-01-01T02:41:48.659Z,4.35
2023-01-01T02:44:16.934Z,4.68
2023-01-01T02:46:43.737Z,4.65
2023-01-01T02:49:11.924Z,4.20
2023-01-01T02:52:04.982Z,4.60
2023-01-01T02:54:50.743Z,4.18
2023-01-01T02:57:23.583Z,4.40
2023-01-01T03:00:27.676Z,4.45
2023-01-01T03:03:16.960Z,4.18
2023-01-01T03:06:14.569Z,4.22
2023-01-01T03:08:52.742Z,4.07
2023-01-01T03:11:22.950Z,4.13
2023-01-01T03:14:03.507Z,3.90
2023-01-01T03:17:35.395Z,4.32
2023-01-01T03:20:10.392Z,4.10
2023-01-01T03:25:12.506Z,3.63
2023-01-01T03:28:15.033Z,4.63
2023-01-01T03:30:44.653Z,4.03
2023-01-01T03:33:18.579Z,4.13
2023-01-01T03:35:59.837Z,3.88
2023-01-01T03:38:29.658Z,3.28
2023-01-01T03:41:05.199Z,3.95
2023-01-01T03:43:44.722Z,3.75
2023-01-01T03:46:14.527Z,3.42
2023-01-01T03:49:02.623Z,4.07
2023-01-01T03:51:38.521Z,4.03
2023-01-01T03:54:21.657Z,3.63
2023-01-01T03:56:57.617Z,3.40
2023-01-01T03:59:33.164Z,3.25
2023-01-01T04:02:04.427Z,3.40
2023-01-01T04:04:31.785Z,3.57
2023-01-01T04:07:09.329Z,3.60
2023-01-01T04:09:47.130Z,3.38
2023-01-01T04:12:16.517Z,4.00
2023-01-01T04:14:43.707Z,3.23
2023-01-01T04:17:12.356Z,3.60
2023-01-01T04:19:39.519Z,3.95
2023-01-01T04:22:06.646Z,3.78
2023-01-01T04:24:33.741Z,3.63
2023-01-01T04:27:00.582Z,3.27
2023-01-01T04:29:27.780Z,3.93
2023-01-01T04:31:54.702Z,3.53
2023-01-01T04:34:21.730Z,3.58
2023-01-01T04:36:48.597Z,3.50
2023-01-01T04:39:15.777Z,3.80
2023-01-01T04:41:42.619Z,3.28
2023-01-01T04:44:09.756Z,4.13
2023-01-01T04:46:36.522Z,3.70
2023-01-01T04:49:03.510Z,3.13
2023-01-01T04:51:30.299Z,3.50
2023-01-01T04:53:59.346Z,3.42
2023-01-01T04:56:26.075Z,3.77
2023-01-01T04:58:53.191Z,3.33
2023-01-01T05:01:23.195Z,3.10
2023-01-01T05:03:50.519Z,2.97
2023-01-01T05:06:18.184Z,3.00
2023-01-01T05:08:48.179Z,3.20
2023-01-01T05:11:16.369Z,3.03
2023-01-01T05:13:46.477Z,3.17
2023-01-01T05:16:18.473Z,3.30
2023-01-01T05:18:46.404Z,3.33
2023-01-01T05:21:15.937Z,2.85
2023-01-01T05:23:43.223Z,3.17
2023-01-01T05:26:15.729Z,3.15
2023-01-01T05:28:43.435Z,2.90
2023-01-01T05:31:14.101Z,2.95
2023-01-01T05:33:41.921Z,2.97
2023-01-01T05:36:14.031Z,2.90
2023-01-01T05:38:41.109Z,3.40
2023-01-01T05:41:09.518Z,3.10
2023-01-01T05:43:36.908Z,3.50
2023-01-01T05:46:10.202Z,3.40
2023-01-01T05:48:37.833Z,2.83
2023-01-01T05:51:11.138Z,3.30
2023-01-01T05:53:38.485Z,3.35
2023-01-01T05:56:06.479Z,3.08
2023-01-01T05:58:35.375Z,3.38
2023-01-01T06:01:06.883Z,2.78
2023-01-01T06:03:34.025Z,3.42
2023-01-01T06:06:06.085Z,3.03
2023-01-01T06:08:33.274Z,3.42
2023-01-01T06:11:02.054Z,3.40
2023-01-01T06:13:29.793Z,2.92
2023-01-01T06:15:58.465Z,3.45
2023-01-01T06:18:26.871Z,3.45
2023-01-01T06:20:53.741Z,3.70
2023-01-01T06:23:20.818Z,3.55
2023-01-01T06:25:47.584Z,3.30
2023-01-01T06:28:14.701Z,3.00
2023-01-01T06:30:41.563Z,3.37
2023-01-01T06:33:08.683Z,3.83
2023-01-01T06:35:35.631Z,3.70
2023-01-01T06:38:02.633Z,3.33
2023-01-01T06:40:29.459Z,3.30
2023-01-01T06:42:56.621Z,3.33
2023-01-01T06:45:23.451Z,3.57
2023-01-01T06:47:50.493Z,4.20
2023-01-01T06:50:17.201Z,3.95
2023-01-01T06:52:44.331Z,4.27
2023-01-01T06:55:11.120Z,3.67
2023-01-01T06:57:38.257Z,4.77
2023-01-01T07:00:05.585Z,4.27
2023-01-01T07:02:32.967Z,4.18
2023-01-01T07:04:59.999Z,4.07
2023-01-01T07:07:29.937Z,4.20
2023-01-01T07:10:00.980Z,4.30
2023-01-01T07:12:28.091Z,3.87
2023-01-01T07:14:55.677Z,4.37
2023-01-01T07:17:22.747Z,3.90
2023-01-01T07:19:49.496Z,4.30
2023-01-01T07:22:16.535Z,4.55
2023-01-01T07:24:43.306Z,4.22
2023-01-01T07:27:10.338Z,4.45
2023-01-01T07:29:37.096Z,4.50
2023-01-01T07:32:04.375Z,4.70
2023-01-01T07:34:31.107Z,5.13
2023-01-01T07:36:58.200Z,3.95
2023-01-01T07:39:24.945Z,3.80
2023-01-01T07:41:52.072Z,4.00
2023-01-01T07:44:18.813Z,4.00
2023-01-01T07:46:45.944Z,3.53
2023-01-01T07:49:12.827Z,4.50
2023-01-01T07:51:39.835Z,4.20
2023-01-01T07:54:07.789Z,3.80
2023-01-01T07:56:36.002Z,4.05
2023-01-01T07:59:03.108Z,4.47
2023-01-01T08:01:30.302Z,3.85
2023-01-01T08:03:57.172Z,3.67
2023-01-01T08:06:24.260Z,3.78
2023-01-01T08:08:51.225Z,3.97
2023-01-01T08:11:18.306Z,3.58
2023-01-01T08:13:45.168Z,3.67
2023-01-01T08:16:12.208Z,3.55
2023-01-01T08:18:39.928Z,4.35
2023-01-01T08:21:08.854Z,4.13
2023-01-01T08:23:35.579Z,4.55
2023-01-01T08:26:03.267Z,4.35
2023-01-01T08:28:31.249Z,5.15
2023-01-01T08:30:59.442Z,6.03
2023-01-01T08:33:29.334Z,4.88
2023-01-01T08:35:56.646Z,3.88
2023-01-01T08:38:23.737Z,4.97
2023-01-01T08:40:50.836Z,3.65
2023-01-01T08:43:17.623Z,4.25
2023-01-01T08:45:45.542Z,2.92
2023-01-01T08:48:12.398Z,4.15
2023-01-01T08:50:39.358Z,3.75
2023-01-01T08:53:06.068Z,4.47
2023-01-01T08:55:33.112Z,4.78
2023-01-01T08:57:59.936Z,3.75
2023-01-01T09:00:27.168Z,3.15
2023-01-01T09:02:54.142Z,3.50
2023-01-01T09:05:21.309Z,3.35
2023-01-01T09:07:48.074Z,3.60
2023-01-01T09:10:15.123Z,3.67
2023-01-01T09:12:42.050Z,2.97
2023-01-01T09:15:17.025Z,3.75
2023-01-01T09:17:43.844Z,3.78
2023-01-01T09:20:10.973Z,3.70
2023-01-01T09:22:37.773Z,3.50
2023-01-01T09:25:05.096Z,4.28
2023-01-01T09:27:31.896Z,2.75
2023-01-01T09:29:59.826Z,3.22
2023-01-01T09:32:26.734Z,3.30
2023-01-01T09:34:53.778Z,3.53
2023-01-01T09:37:20.589Z,3.22
2023-01-01T09:39:47.657Z,2.97
2023-01-01T09:42:27.049Z,3.40
2023-01-01T09:45:28.113Z,3.30
2023-01-01T09:47:58.944Z,2.78
2023-01-01T09:50:38.623Z,2.90
2023-01-01T09:53:15.132Z,3.05
2023-01-01T09:55:51.304Z,3.20
2023-01-01T09:58:23.085Z,3.72
2023-01-01T10:00:54.335Z,3.25
2023-01-01T10:03:54.045Z,3.20
2023-01-01T10:06:28.556Z,3.45
2023-01-01T10:09:00.348Z,3.33
2023-01-01T10:11:32.968Z,3.65
2023-01-01T10:14:01.712Z,3.03
2023-01-01T10:16:40.182Z,3.17
2023-01-01T10:19:39.989Z,3.45
2023-01-01T10:22:25.888Z,2.90
2023-01-01T10:24:59.950Z,3.13
2023-01-01T10:27:33.936Z,3.25
2023-01-01T10:30:04.576Z,2.95
2023-01-01T10:32:35.147Z,3.30
2023-01-01T10:35:10.842Z,3.28
2023-01-01T10:37:38.763Z,3.35
2023-01-01T10:40:23.691Z,4.00
2023-01-01T10:42:59.065Z,2.97
2023-01-01T10:45:38.070Z,3.20
2023-01-01T10:48:23.130Z,2.80
2023-01-01T10:50:53.570Z,3.40
2023-01-01T10:53:29.552Z,3.20
2023-01-01T10:56:03.183Z,2.78
2023-01-01T10:58:48.834Z,2.90
2023-01-01T11:01:18.687Z,2.92
2023-01-01T11:04:04.127Z,2.65
2023-01-01T11:06:35.359Z,3.08
2023-01-01T11:09:26.588Z,3.15
2023-01-01T11:12:11.884Z,3.13
2023-01-01T11:14:54.147Z,2.92
2023-01-01T11:17:23.900Z,3.90
2023-01-01T11:19:56.671Z,3.67
2023-01-01T11:22:39.836Z,3.08
2023-01-01T11:25:23.037Z,3.55
2023-01-01T11:27:51.588Z,3.28
2023-01-01T11:30:20.612Z,3.63
2023-01-01T11:32:55.122Z,3.15
2023-01-01T11:35:26.235Z,3.40
2023-01-01T11:37:55.114Z,3.13
2023-01-01T11:40:47.598Z,3.25
2023-01-01T11:43:24.850Z,2.90
2023-01-01T11:45:54.792Z,2.70
2023-01-01T11:48:34.471Z,3.58
2023-01-01T11:51:05.154Z,3.80
2023-01-01T11:53:33.228Z,3.15
2023-01-01T11:56:20.353Z,3.00
2023-01-01T11:59:06.735Z,3.38
2023-01-01T12:01:52.349Z,3.47
2023-01-01T12:04:37.335Z,3.55
2023-01-01T12:07:15.964Z,3.08
2023-01-01T12:09:48.823Z,3.30
2023-01-01T12:12:24.927Z,3.38
2023-01-01T12:15:06.142Z,3.00
2023-01-01T12:17:43.502Z,3.35
2023-01-01T12:20:23.275Z,2.78
2023-01-01T12:22:50.571Z,2.75
2023-01-01T12:25:19.741Z,3.40
2023-01-01T12:28:11.609Z,3.75
2023-01-01T12:31:03.409Z,2.88
2023-01-01T12:33:33.274Z,3.65
2023-01-01T12:36:39.000Z,3.47
2023-01-01T12:39:27.775Z,3.20
2023-01-01T12:42:18.059Z,3.75
2023-01-01T12:45:06.382Z,3.45
2023-01-01T12:47:48.880Z,3.28
2023-01-01T12:50:24.779Z,3.80
2023-01-01T12:53:04.011Z,3.20
2023-01-01T12:55:43.291Z,3.42
2023-01-01T12:58:27.116Z,3.35
2023-01-01T13:00:58.767Z,3.80
2023-01-01T13:03:33.592Z,3.65
2023-01-01T13:06:02.434Z,3.20
2023-01-01T13:08:29.214Z,3.00
2023-01-01T13:10:58.959Z,3.13
2023-01-01T13:13:26.266Z,3.45
2023-01-01T13:15:57.515Z,2.88
2023-01-01T13:18:34.532Z,3.45
2023-01-01T13:21:06.415Z,3.40
2023-01-01T13:23:36.021Z,3.15
2023-01-01T13:26:18.437Z,3.13
2023-01-01T13:28:57.161Z,4.00
2023-01-01T13:31:39.592Z,3.80
2023-01-01T13:34:31.719Z,3.55
2023-01-01T13:37:10.747Z,3.58
2023-01-01T13:39:58.950Z,4.63
2023-01-01T13:42:59.016Z,3.85
2023-01-01T13:46:11.116Z,3.28
2023-01-01T13:49:01.150Z,3.50
2023-01-01T13:52:07.139Z,3.60
2023-01-01T13:54:53.168Z,3.50
2023-01-01T13:57:50.704Z,3.17
2023-01-01T14:00:32.599Z,3.38
2023-01-01T14:03:02.827Z,3.25
2023-01-01T14:05:38.125Z,3.30
2023-01-01T14:08:08.594Z,3.70
2023-01-01T14:10:38.687Z,3.50
2023-01-01T14:13:05.374Z,3.70
2023-01-01T14:15:35.710Z,3.30
2023-01-01T14:18:11.522Z,3.20
2023-01-01T14:20:54.275Z,3.33
2023-01-01T14:23:32.190Z,3.53
2023-01-01T14:26:06.795Z,3.15
2023-01-01T14:28:35.475Z,3.28
2023-01-01T14:31:12.090Z,3.70
2023-01-01T14:33:39.757Z,3.42
2023-01-01T14:36:26.055Z,3.40
2023-01-01T14:38:58.424Z,3.45
2023-01-01T14:41:37.605Z,3.40
2023-01-01T14:44:13.342Z,3.33
2023-01-01T14:46:43.751Z,3.10
2023-01-01T14:49:16.683Z,3.45
2023-01-01T14:51:55.404Z,3.70
2023-01-01T14:54:27.766Z,3.63
2023-01-01T14:56:55.051Z,3.50
2023-01-01T14:59:28.929Z,3.50
2023-01-01T15:02:13.240Z,3.47
2023-01-01T15:04:40.848Z,3.85
2023-01-01T15:07:22.644Z,3.90
2023-01-01T15:09:51.161Z,4.28
2023-01-01T15:12:18.323Z,3.63
2023-01-01T15:14:47.845Z,3.97
2023-01-01T15:17:18.250Z,4.15
2023-01-01T15:19:47.389Z,3.80
2023-01-01T15:22:25.020Z,3.95
2023-01-01T15:24:52.000Z,4.07
2023-01-01T15:27:35.536Z,4.15
2023-01-01T15:30:09.864Z,3.97
2023-01-01T15:32:41.004Z,3.65
2023-01-01T15:35:38.095Z,3.88
2023-01-01T15:38:16.292Z,3.95
2023-01-01T15:40:49.447Z,3.90
2023-01-01T15:43:19.989Z,4.25
2023-01-01T15:45:54.603Z,3.80
2023-01-01T15:48:37.463Z,3.88
2023-01-01T15:51:24.610Z,3.88
2023-01-01T15:53:56.658Z,3.78
2023-01-01T15:56:27.097Z,4.03
2023-01-01T15:59:08.467Z,3.67
2023-01-01T16:01:39.059Z,4.33
2023-01-01T16:04:11.068Z,3.63
2023-01-01T16:06:50.691Z,4.53
2023-01-01T16:09:19.870Z,4.05
2023-01-01T16:11:52.045Z,3.67
2023-01-01T16:14:19.205Z,4.18
2023-01-01T16:16:51.239Z,4.03
2023-01-01T16:19:19.362Z,3.92
2023-01-01T16:21:46.079Z,4.18
2023-01-01T16:24:17.349Z,3.85
2023-01-01T16:26:44.984Z,3.97
2023-01-01T16:29:12.406Z,3.50
2023-01-01T16:31:40.475Z,4.32
2023-01-01T16:34:09.013Z,4.05
2023-01-01T16:36:35.770Z,3.55
2023-01-01T16:39:02.908Z,3.88
2023-01-01T16:41:30.331Z,4.13
2023-01-01T16:43:57.814Z,4.22
2023-01-01T16:46:25.897Z,4.15
2023-01-01T16:48:53.326Z,3.97
2023-01-01T16:51:24.289Z,4.30
2023-01-01T16:53:51.302Z,4.88
2023-01-01T16:56:18.365Z,4.15
2023-01-01T16:58:51.547Z,4.40
2023-01-01T17:01:21.617Z,3.72
2023-01-01T17:03:49.960Z,3.95
2023-01-01T17:06:17.293Z,4.20
2023-01-01T17:08:44.429Z,4.30
2023-01-01T17:11:15.202Z,4.32
2023-01-01T17:13:43.757Z,3.92
2023-01-01T17:16:12.539Z,3.58
2023-01-01T17:19:13.241Z,3.90
2023-01-01T17:21:26.706Z,4.45
2023-01-01T17:23:53.862Z,4.57
2023-01-01T17:26:23.380Z,4.63
2023-01-01T17:28:58.077Z,4.03
2023-01-01T17:31:28.706Z,4.65
2023-01-01T17:33:56.126Z,4.15
2023-01-01T17:36:23.327Z,4.30
2023-01-01T17:38:50.311Z,4.93
2023-01-01T17:41:18.004Z,5.22
2023-01-01T17:43:47.248Z,4.70
2023-01-01T17:46:15.392Z,4.43
2023-01-01T17:48:43.855Z,4.53
2023-01-01T17:51:12.461Z,4.50
2023-01-01T17:53:40.024Z,5.23
2023-01-01T17:56:08.621Z,4.85
2023-01-01T17:58:36.353Z,4.80
2023-01-01T18:01:34.726Z,4.15
2023-01-01T18:04:05.348Z,4.93
2023-01-01T18:06:38.818Z,4.53
2023-01-01T18:09:11.403Z,5.40
2023-01-01T18:11:38.367Z,5.55
2023-01-01T18:14:05.861Z,5.65
2023-01-01T18:16:37.199Z,4.97
2023-01-01T18:19:05.485Z,5.45
2023-01-01T18:21:33.295Z,4.78
2023-01-01T18:24:00.658Z,5.18
2023-01-01T18:26:30.604Z,5.50
2023-01-01T18:29:01.943Z,5.63
2023-01-01T18:31:31.667Z,5.53
2023-01-01T18:33:59.243Z,5.38
2023-01-01T18:36:28.913Z,5.25
2023-01-01T18:39:09.273Z,5.20
2023-01-01T18:41:52.805Z,5.20
2023-01-01T18:44:24.905Z,5.67
2023-01-01T18:46:58.102Z,5.63
2023-01-01T18:49:25.631Z,5.38
2023-01-01T18:52:02.345Z,6.03
2023-01-01T18:54:29.713Z,5.95
2023-01-01T18:57:10.066Z,5.63
2023-01-01T18:59:37.628Z,5.27
2023-01-01T19:02:23.106Z,6.85
2023-01-01T19:04:50.766Z,5.93
2023-01-01T19:07:18.127Z,5.47
2023-01-01T19:09:45.213Z,5.55
2023-01-01T19:12:18.362Z,5.40
2023-01-01T19:14:45.476Z,6.93
2023-01-01T19:17:23.140Z,5.60
2023-01-01T19:19:52.478Z,5.17
2023-01-01T19:22:30.893Z,5.60
2023-01-01T19:25:02.862Z,5.88
2023-01-01T19:27:34.087Z,5.27
2023-01-01T19:30:01.921Z,5.78
2023-01-01T19:32:28.760Z,6.53
2023-01-01T19:34:56.387Z,6.43
2023-01-01T19:37:23.229Z,6.23
2023-01-01T19:39:51.583Z,6.05
2023-01-01T19:42:18.545Z,5.70
2023-01-01T19:44:45.824Z,6.03
2023-01-01T19:47:12.943Z,5.50
2023-01-01T19:49:40.102Z,6.22
2023-01-01T19:52:07.386Z,6.13
2023-01-01T19:54:34.606Z,6.30
2023-01-01T19:57:01.586Z,6.00
2023-01-01T19:59:32.941Z,6.07
2023-01-01T20:02:43.251Z,6.23
2023-01-01T20:04:48.996Z,5.83
2023-01-01T20:07:17.461Z,5.93
2023-01-01T20:09:44.635Z,6.63
2023-01-01T20:12:11.568Z,6.83
2023-01-01T20:14:38.785Z,6.73
2023-01-01T20:17:05.583Z,7.23
2023-01-01T20:19:32.926Z,6.90
2023-01-01T20:22:11.879Z,6.37
2023-01-01T20:24:42.342Z,7.00
2023-01-01T20:27:09.809Z,7.33
2023-01-01T20:29:37.095Z,7.97
2023-01-01T20:32:05.203Z,7.20
2023-01-01T20:34:32.428Z,7.13
2023-01-01T20:37:18.052Z,7.23
2023-01-01T20:39:45.309Z,7.03
2023-01-01T20:42:12.410Z,7.03
2023-01-01T20:44:42.756Z,7.40
2023-01-01T20:47:11.176Z,7.47
2023-01-01T20:49:38.439Z,7.10
2023-01-01T20:52:05.319Z,6.67
2023-01-01T20:54:32.404Z,7.37
2023-01-01T20:56:59.215Z,7.73
2023-01-01T20:59:41.975Z,7.10
2023-01-01T21:02:11.074Z,7.77
2023-01-01T21:04:39.650Z,7.20
2023-01-01T21:07:11.814Z,7.07
2023-01-01T21:09:40.619Z,6.97
2023-01-01T21:12:08.227Z,8.37
2023-01-01T21:14:35.782Z,8.07
2023-01-01T21:17:35.070Z,6.97
2023-01-01T21:20:02.507Z,7.17
2023-01-01T21:22:29.302Z,8.18
2023-01-01T21:25:16.833Z,8.37
2023-01-01T21:27:44.289Z,7.37
2023-01-01T21:30:12.656Z,7.77
2023-01-01T21:32:43.274Z,7.00
2023-01-01T21:35:23.820Z,7.87
2023-01-01T21:37:53.359Z,7.17
2023-01-01T21:40:39.046Z,7.03
2023-01-01T21:43:05.980Z,7.78
2023-01-01T21:45:40.768Z,7.17
2023-01-01T21:48:27.953Z,7.57
2023-01-01T21:50:55.299Z,7.60
2023-01-01T21:53:49.235Z,7.40
2023-01-01T21:56:36.501Z,8.25
2023-01-01T21:59:27.128Z,7.67
2023-01-01T22:02:06.210Z,8.53
2023-01-01T22:04:54.113Z,8.13
2023-01-01T22:10:21.654Z,7.50
2023-01-01T22:12:53.013Z,7.57
2023-01-01T22:15:26.170Z,7.33
2023-01-01T22:18:11.828Z,8.50
2023-01-01T22:20:41.815Z,7.65
2023-01-01T22:23:20.072Z,8.93
2023-01-01T22:25:47.656Z,8.60
2023-01-01T22:28:25.917Z,7.80
2023-01-01T22:30:57.471Z,7.70
2023-01-01T22:33:37.010Z,7.55
2023-01-01T22:36:12.624Z,7.93
2023-01-01T22:38:39.872Z,8.18
2023-01-01T22:41:08.205Z,7.88
2023-01-01T22:43:40.757Z,7.45
2023-01-01T22:46:18.811Z,8.35
2023-01-01T22:48:48.041Z,8.40
2023-01-01T22:51:24.589Z,7.70
2023-01-01T22:53:51.679Z,8.38
2023-01-01T22:56:18.554Z,8.40
2023-01-01T22:58:45.529Z,7.85
2023-01-01T23:01:12.360Z,8.60
2023-01-01T23:03:39.592Z,8.68
2023-01-01T23:06:06.726Z,9.00
2023-01-01T23:08:33.721Z,8.40
2023-01-01T23:11:02.445Z,7.85
2023-01-01T23:13:47.898Z,7.85
2023-01-01T23:16:14.813Z,7.77
2023-01-01T23:18:42.737Z,8.05
2023-01-01T23:21:14.493Z,7.93
2023-01-01T23:23:41.880Z,8.20
2023-01-01T23:26:09.403Z,8.07
2023-01-01T23:28:37.039Z,8.37
2023-01-01T23:31:07.413Z,7.20
2023-01-01T23:33:35.094Z,8.70
2023-01-01T23:36:02.537Z,8.17
2023-01-01T23:38:31.944Z,8.63
2023-01-01T23:40:58.790Z,8.67
2023-01-01T23:43:25.854Z,9.57
2023-01-01T23:45:52.940Z,9.87
2023-01-01T23:48:20.005Z,9.47
2023-01-01T23:50:47.698Z,9.75
2023-01-01T23:53:14.865Z,9.57
2023-01-01T23:55:42.278Z,9.07
2023-01-01T23:58:09.353Z,9.37
